.
WxDataArchive / Data Records for 2008-01-25
2008-01-24 January 2008 2008-01-26

Data Records for Friday, 25 January 2008

Time	Temp	Chill	HIndex	Humid	Dewpt	 Wind 	HiWind	WindDir	Rain 	Barom 
-----	----	-----	------	-----	-----	------	------	-------	-----	----- 
00:00	3.5	3.5	3.5	65	-5.6	1	5	248	0.00	30.508 
00:05	3.5	3.5	3.5	64	-5.9	1	4	248	0.00	30.509 
00:10	3.4	3.4	3.4	64	-6.0	1	4	248	0.00	30.513 
00:15	3.2	3.2	3.2	63	-6.5	0	4	248	0.00	30.509 
00:20	3.0	3.0	3.0	63	-6.7	1	4	248	0.00	30.509 
00:25	3.0	3.0	3.0	63	-6.7	1	4	248	0.00	30.512 
00:30	2.8	2.8	2.8	63	-6.9	1	3	248	0.00	30.514 
00:35	2.6	2.6	2.6	62	-7.4	1	4	248	0.00	30.517 
00:40	2.6	2.6	2.6	62	-7.4	1	4	248	0.00	30.517 
00:45	2.6	2.6	2.6	62	-7.4	1	3	248	0.00	30.515 
00:50	2.4	2.4	2.4	61	-7.9	1	4	248	0.00	30.513 
00:55	2.2	2.2	2.2	61	-8.1	0	2	248	0.00	30.515 
01:00	2.2	2.2	2.2	61	-8.1	1	3	248	0.00	30.516 
01:05	2.0	2.0	2.0	60	-8.6	0	3	225	0.00	30.516 
01:10	2.0	2.0	2.0	60	-8.6	1	3	248	0.00	30.518 
01:15	1.8	1.8	1.8	60	-8.8	0	3	225	0.00	30.518 
01:20	1.7	1.7	1.7	60	-8.9	0	4	248	0.00	30.522 
01:25	1.5	1.5	1.5	59	-9.5	0	4	248	0.00	30.522 
01:30	1.5	1.5	1.5	59	-9.5	0	3	248	0.00	30.519 
01:35	1.3	1.3	1.3	58	-10.0	1	4	248	0.00	30.521 
01:40	1.3	1.3	1.3	58	-10.0	1	3	248	0.00	30.522 
01:45	1.3	1.3	1.3	58	-10.0	1	3	248	0.00	30.525 
01:50	1.1	1.1	1.1	57	-10.5	1	3	248	0.00	30.525 
01:55	1.1	1.1	1.1	57	-10.5	0	3	248	0.00	30.524 
02:00	0.9	0.9	0.9	57	-10.7	1	3	248	0.00	30.526 
02:05	0.9	0.9	0.9	58	-10.4	0	2	248	0.00	30.527 
02:10	0.7	0.7	0.7	57	-10.9	1	4	248	0.00	30.524 
02:15	0.7	0.7	0.7	57	-10.9	0	3	248	0.00	30.522 
02:20	0.5	0.5	0.5	58	-10.8	0	3	248	0.00	30.526 
02:25	0.5	0.5	0.5	57	-11.1	0	2	248	0.00	30.529 
02:30	0.5	0.5	0.5	57	-11.1	1	4	248	0.00	30.532 
02:35	0.3	0.3	0.3	57	-11.3	0	3	248	0.00	30.532 
02:40	0.3	0.3	0.3	57	-11.3	0	3	225	0.00	30.530 
02:45	0.1	0.1	0.1	57	-11.5	0	3	225	0.00	30.530 
02:50	0.1	0.1	0.1	57	-11.5	0	1	225	0.00	30.532 
02:55	0.0	0.0	0.0	57	-11.6	0	3	248	0.00	30.533 
03:00	0.0	0.0	0.0	57	-11.6	0	4	225	0.00	30.533 
03:05	0.0	0.0	0.0	57	-11.6	0	2	248	0.00	30.534 
03:10	0.0	0.0	0.0	57	-11.6	1	4	248	0.00	30.537 
03:15	0.0	0.0	0.0	57	-11.6	0	4	248	0.00	30.538 
03:20	0.0	0.0	0.0	58	-11.2	1	3	248	0.00	30.541 
03:25	-0.2	-0.2	-0.2	58	-11.4	0	1	225	0.00	30.535 
03:30	-0.2	-0.2	-0.2	58	-11.4	0	2	248	0.00	30.534 
03:35	-0.2	-0.2	-0.2	58	-11.4	0	2	248	0.00	30.534 
03:40	-0.2	-0.2	-0.2	58	-11.4	0	2	248	0.00	30.538 
03:45	-0.2	-0.2	-0.2	58	-11.4	0	4	248	0.00	30.543 
03:50	0.0	0.0	0.0	58	-11.2	0	3	248	0.00	30.545 
03:55	0.0	0.0	0.0	58	-11.2	1	4	248	0.00	30.542 
04:00	0.0	0.0	0.0	58	-11.2	1	5	248	0.00	30.539 
04:05	0.0	0.0	0.0	58	-11.2	1	3	248	0.00	30.545 
04:10	0.0	0.0	0.0	58	-11.2	1	3	248	0.00	30.548 
04:15	0.0	0.0	0.0	58	-11.2	0	3	248	0.00	30.544 
04:20	-0.2	-0.2	-0.2	58	-11.4	0	3	248	0.00	30.540 
04:25	-0.2	-0.2	-0.2	58	-11.4	0	2	225	0.00	30.542 
04:30	-0.2	-0.2	-0.2	59	-11.1	1	4	248	0.00	30.545 
04:35	-0.2	-0.2	-0.2	59	-11.1	0	2	248	0.00	30.545 
04:40	-0.2	-0.2	-0.2	58	-11.4	0	1	248	0.00	30.545 
04:45	-0.2	-0.2	-0.2	59	-11.1	0	2	248	0.00	30.544 
04:50	0.0	0.0	0.0	58	-11.2	1	3	248	0.00	30.544 
04:55	0.0	0.0	0.0	58	-11.2	0	3	248	0.00	30.546 
05:00	0.0	0.0	0.0	58	-11.2	1	3	248	0.00	30.545 
05:05	0.0	0.0	0.0	58	-11.2	1	5	248	0.00	30.549 
05:10	0.0	0.0	0.0	58	-11.2	0	3	248	0.00	30.547 
05:15	0.0	0.0	0.0	58	-11.2	0	1	248	0.00	30.539 
05:20	-0.2	-0.2	-0.2	59	-11.1	0	2	248	0.00	30.539 
05:25	-0.2	-0.2	-0.2	59	-11.1	0	3	248	0.00	30.539 
05:30	-0.2	-0.2	-0.2	59	-11.1	0	2	248	0.00	30.538 
05:35	-0.2	-0.2	-0.2	60	-10.7	0	1	248	0.00	30.542 
05:40	-0.2	-0.2	-0.2	60	-10.7	0	2	248	0.00	30.548 
05:45	-0.2	-0.2	-0.2	60	-10.7	1	4	248	0.00	30.549 
05:50	-0.2	-0.2	-0.2	60	-10.7	1	5	248	0.00	30.549 
05:55	-0.2	-0.2	-0.2	60	-10.7	0	3	248	0.00	30.548 
06:00	-0.2	-0.2	-0.2	60	-10.7	0	1	248	0.00	30.544 
06:05	-0.2	-0.2	-0.2	60	-10.7	0	4	225	0.00	30.544 
06:10	-0.2	-0.2	-0.2	60	-10.7	1	4	248	0.00	30.542 
06:15	-0.2	-0.2	-0.2	60	-10.7	0	2	248	0.00	30.542 
06:20	-0.2	-0.2	-0.2	60	-10.7	0	3	248	0.00	30.539 
06:25	-0.2	-0.2	-0.2	60	-10.7	1	4	248	0.00	30.542 
06:30	-0.2	-0.2	-0.2	60	-10.7	1	5	248	0.00	30.546 
06:35	-0.2	-0.2	-0.2	60	-10.7	1	4	248	0.00	30.545 
06:40	0.0	0.0	0.0	60	-10.5	1	6	248	0.00	30.551 
06:45	0.0	0.0	0.0	60	-10.5	1	3	248	0.00	30.552 
06:50	0.0	0.0	0.0	60	-10.5	1	6	248	0.00	30.550 
06:55	0.0	0.0	0.0	60	-10.5	0	3	248	0.00	30.552 
07:00	0.0	0.0	0.0	60	-10.5	1	3	248	0.00	30.552 
07:05	0.1	0.1	0.1	59	-10.8	1	3	248	0.00	30.553 
07:10	0.1	0.1	0.1	59	-10.8	0	2	225	0.00	30.550 
07:15	0.1	0.1	0.1	59	-10.8	1	4	248	0.00	30.551 
07:20	0.1	0.1	0.1	60	-10.4	0	3	248	0.00	30.546 
07:25	0.0	0.0	0.0	60	-10.5	0	3	248	0.00	30.543 
07:30	0.0	0.0	0.0	60	-10.5	0	2	248	0.00	30.543 
07:35	0.0	0.0	0.0	60	-10.5	0	3	248	0.00	30.543 
07:40	-0.2	-0.2	-0.2	60	-10.7	0	2	248	0.00	30.548 
07:45	-0.2	-0.2	-0.2	60	-10.7	0	2	248	0.00	30.549 
07:50	-0.4	-0.4	-0.4	60	-10.9	0	0	---	0.00	30.551 
07:55	-0.6	-0.6	-0.6	61	-10.8	0	0	---	0.00	30.553 
08:00	-1.0	-1.0	-1.0	62	-10.8	0	1	248	0.00	30.553 
08:05	-1.0	-1.0	-1.0	62	-10.8	0	0	---	0.00	30.557 
08:10	-1.0	-1.0	-1.0	63	-10.5	0	2	248	0.00	30.556 
08:15	-0.8	-0.8	-0.8	63	-10.3	0	1	248	0.00	30.557 
08:20	-0.6	-0.6	-0.6	63	-10.1	0	1	248	0.00	30.557 
08:25	-0.4	-0.4	-0.4	62	-10.3	0	2	248	0.00	30.557 
08:30	0.0	0.0	0.0	62	-9.9	0	1	248	0.00	30.557 
08:35	0.3	0.3	0.3	62	-9.6	0	2	248	0.00	30.558 
08:40	0.7	0.7	0.7	61	-9.5	0	2	248	0.00	30.556 
08:45	1.3	1.3	1.3	60	-9.3	1	3	248	0.00	30.557 
08:50	1.7	1.7	1.7	59	-9.3	1	5	248	0.00	30.557 
08:55	2.0	2.0	2.0	58	-9.3	1	3	248	0.00	30.556 
09:00	2.2	2.2	2.2	57	-9.5	0	3	248	0.00	30.557 
09:05	2.6	2.6	2.6	57	-9.1	0	2	248	0.00	30.558 
09:10	3.0	3.0	3.0	56	-9.1	1	5	248	0.00	30.562 
09:15	3.4	3.4	3.4	54	-9.5	1	4	248	0.00	30.558 
09:20	3.7	3.7	3.7	54	-9.2	0	2	248	0.00	30.556 
09:25	4.1	4.1	4.1	53	-9.2	1	3	248	0.00	30.557 
09:30	4.5	4.5	4.5	51	-9.6	2	5	248	0.00	30.557 
09:35	4.8	4.8	4.8	50	-9.7	1	3	248	0.00	30.555 
09:40	5.4	5.4	5.4	50	-9.2	1	3	248	0.00	30.555 
09:45	5.8	5.8	5.8	47	-10.0	2	4	248	0.00	30.555 
09:50	6.1	6.1	6.1	46	-10.2	1	5	248	0.00	30.554 
09:55	6.3	6.3	6.3	44	-10.9	3	7	248	0.00	30.553 
10:00	6.5	6.5	6.5	44	-10.7	2	4	248	0.00	30.552 
10:05	6.7	6.7	6.7	44	-10.5	2	6	248	0.00	30.553 
10:10	7.0	7.0	7.0	44	-10.3	2	6	248	0.00	30.552 
10:15	7.4	7.4	7.4	44	-9.9	2	6	248	0.00	30.554 
10:20	7.6	7.6	7.6	43	-10.2	2	5	248	0.00	30.554 
10:25	7.7	7.7	7.7	43	-10.1	1	7	248	0.00	30.554 
10:30	7.9	7.9	7.9	42	-10.4	3	7	248	0.00	30.554 
10:35	8.3	8.3	8.3	43	-9.5	2	7	270	0.00	30.553 
10:40	8.8	8.8	8.8	42	-9.6	2	6	248	0.00	30.550 
10:45	9.0	9.0	9.0	43	-8.9	1	5	248	0.00	30.550 
10:50	9.2	9.2	9.2	43	-8.7	1	6	248	0.00	30.548 
10:55	9.5	9.5	9.5	43	-8.4	2	5	248	0.00	30.545 
11:00	9.7	9.7	9.7	43	-8.3	1	6	248	0.00	30.545 
11:05	10.4	10.4	10.4	44	-7.1	1	4	248	0.00	30.548 
11:10	10.7	10.7	10.7	43	-7.3	1	4	248	0.00	30.544 
11:15	11.2	11.2	11.2	43	-6.9	1	4	248	0.00	30.541 
11:20	11.6	11.6	11.6	43	-6.5	1	5	248	0.00	30.540 
11:25	11.7	11.7	11.7	43	-6.4	1	2	248	0.00	30.536 
11:30	12.1	12.1	12.1	42	-6.5	1	3	248	0.00	30.535 
11:35	12.6	12.6	12.6	42	-6.1	2	6	248	0.00	30.534 
11:40	12.9	12.9	12.9	41	-6.3	1	5	248	0.00	30.534 
11:45	13.1	13.1	13.1	40	-6.6	2	9	248	0.00	30.532 
11:50	13.5	13.5	13.5	38	-7.3	3	6	248	0.00	30.530 
11:55	13.6	6.8	13.6	37	-7.8	4	11	248	0.00	30.525 
12:00	14.0	14.0	14.0	37	-7.4	2	6	248	0.00	30.519 
12:05	14.1	14.1	14.1	36	-7.9	2	9	248	0.00	30.520 
12:10	14.3	14.3	14.3	37	-7.2	2	7	248	0.00	30.517 
12:15	14.8	14.8	14.8	37	-6.7	2	5	248	0.00	30.515 
12:20	14.9	14.9	14.9	36	-7.2	2	5	248	0.00	30.511 
12:25	15.2	15.2	15.2	37	-6.3	1	4	248	0.00	30.507 
12:30	15.6	15.6	15.6	36	-6.5	1	5	248	0.00	30.504 
12:35	15.7	15.7	15.7	38	-5.3	1	4	248	0.00	30.499 
12:40	16.2	16.2	16.2	37	-5.4	2	6	248	0.00	30.496 
12:45	16.5	16.5	16.5	37	-5.2	1	5	248	0.00	30.496 
12:50	16.4	16.4	16.4	35	-6.4	3	7	248	0.00	30.493 
12:55	16.5	16.5	16.5	35	-6.3	2	7	248	0.00	30.489 
13:00	16.4	16.4	16.4	35	-6.4	3	9	248	0.00	30.485 
13:05	16.7	16.7	16.7	36	-5.6	1	4	248	0.00	30.479 
13:10	17.2	17.2	17.2	36	-5.1	1	4	225	0.00	30.475 
13:15	17.3	17.3	17.3	34	-6.2	3	9	248	0.00	30.470 
13:20	17.5	17.5	17.5	35	-5.4	2	5	248	0.00	30.469 
13:25	17.8	17.8	17.8	37	-4.0	1	5	225	0.00	30.467 
13:30	18.0	18.0	18.0	35	-5.0	2	5	248	0.00	30.463 
13:35	18.3	18.3	18.3	33	-5.9	2	6	248	0.00	30.463 
13:40	18.3	18.3	18.3	34	-5.3	2	7	248	0.00	30.459 
13:45	18.3	18.3	18.3	34	-5.3	3	6	248	0.00	30.455 
13:50	18.6	18.6	18.6	37	-3.3	1	4	248	0.00	30.455 
13:55	18.6	18.6	18.6	37	-3.3	2	5	248	0.00	30.455 
14:00	18.6	18.6	18.6	37	-3.3	2	7	248	0.00	30.457 
14:05	18.6	18.6	18.6	37	-3.3	1	5	270	0.00	30.455 
14:10	18.6	18.6	18.6	38	-2.7	1	6	248	0.00	30.453 
14:15	18.6	18.6	18.6	38	-2.7	1	5	248	0.00	30.447 
14:20	18.6	18.6	18.6	37	-3.3	2	6	248	0.00	30.450 
14:25	18.9	18.9	18.9	39	-1.9	1	4	248	0.00	30.441 
14:30	19.1	19.1	19.1	39	-1.7	1	4	248	0.00	30.439 
14:35	19.2	19.2	19.2	37	-2.8	2	4	248	0.00	30.438 
14:40	19.4	19.4	19.4	37	-2.6	2	5	248	0.00	30.437 
14:45	18.9	18.9	18.9	37	-3.0	2	6	248	0.00	30.437 
14:50	19.1	19.1	19.1	38	-2.3	1	4	248	0.00	30.435 
14:55	19.5	19.5	19.5	40	-0.8	1	4	248	0.00	30.438 
15:00	20.0	20.0	20.0	38	-1.5	1	6	248	0.00	30.434 
15:05	20.5	20.5	20.5	37	-1.6	2	4	248	0.00	30.435 
15:10	20.6	20.6	20.6	38	-0.9	2	5	248	0.00	30.434 
15:15	21.0	21.0	21.0	38	-0.6	2	5	248	0.00	30.432 
15:20	21.4	21.4	21.4	39	0.3	1	3	248	0.00	30.430 
15:25	21.8	21.8	21.8	39	0.7	2	7	248	0.00	30.429 
15:30	21.9	21.9	21.9	39	0.8	1	3	248	0.00	30.430 
15:35	21.6	21.6	21.6	38	-0.0	2	7	248	0.00	30.432 
15:40	21.0	21.0	21.0	39	-0.0	1	4	248	0.00	30.428 
15:45	20.3	20.3	20.3	40	-0.1	1	5	248	0.00	30.423 
15:50	20.2	20.2	20.2	43	1.3	1	4	270	0.00	30.422 
15:55	20.2	20.2	20.2	43	1.3	1	4	225	0.00	30.420 
16:00	20.2	20.2	20.2	43	1.3	1	3	225	0.00	30.418 
16:05	20.3	20.3	20.3	43	1.4	1	3	248	0.00	30.416 
16:10	20.5	20.5	20.5	45	2.6	0	2	248	0.00	30.414 
16:15	20.8	20.8	20.8	43	1.9	1	3	248	0.00	30.412 
16:20	20.8	20.8	20.8	43	1.9	1	3	248	0.00	30.407 
16:25	20.8	20.8	20.8	43	1.9	1	4	248	0.00	30.414 
16:30	20.6	20.6	20.6	42	1.2	1	4	248	0.00	30.407 
16:35	20.5	20.5	20.5	43	1.6	1	3	225	0.00	30.406 
16:40	20.5	20.5	20.5	43	1.6	1	6	248	0.00	30.405 
16:45	20.5	20.5	20.5	45	2.6	1	2	248	0.00	30.403 
16:50	20.5	20.5	20.5	44	2.1	1	5	248	0.00	30.405 
16:55	20.5	20.5	20.5	44	2.1	2	4	248	0.00	30.412 
17:00	20.5	20.5	20.5	46	3.0	0	3	225	0.00	30.412 
17:05	20.5	20.5	20.5	46	3.0	0	3	270	0.00	30.415 
17:10	20.6	20.6	20.6	45	2.7	1	4	248	0.00	30.414 
17:15	20.6	20.6	20.6	43	1.7	2	5	248	0.00	30.409 
17:20	20.5	20.5	20.5	44	2.1	1	3	270	0.00	30.403 
17:25	20.3	20.3	20.3	44	1.9	1	3	248	0.00	30.400 
17:30	20.3	20.3	20.3	45	2.4	1	3	248	0.00	30.396 
17:35	20.3	20.3	20.3	45	2.4	1	4	248	0.00	30.395 
17:40	20.3	20.3	20.3	46	2.9	0	3	225	0.00	30.395 
17:45	20.3	20.3	20.3	46	2.9	0	2	225	0.00	30.389 
17:50	20.2	20.2	20.2	45	2.3	0	2	248	0.00	30.385 
17:55	20.2	20.2	20.2	46	2.8	0	1	248	0.00	30.379 
18:00	20.2	20.2	20.2	46	2.8	0	1	248	0.00	30.372 
18:05	20.2	20.2	20.2	48	3.7	0	1	248	0.00	30.362 
18:10	20.2	20.2	20.2	46	2.8	1	4	112	0.00	30.356 
18:15	20.2	20.2	20.2	47	3.2	0	3	112	0.00	30.354 
18:20	20.2	20.2	20.2	49	4.1	0	2	158	0.00	30.355 
18:25	20.2	20.2	20.2	50	4.6	0	2	158	0.00	30.356 
18:30	20.2	20.2	20.2	49	4.1	0	1	158	0.00	30.354 
18:35	20.2	20.2	20.2	49	4.1	0	2	112	0.00	30.355 
18:40	20.2	20.2	20.2	50	4.6	0	1	112	0.00	30.351 
18:45	20.2	20.2	20.2	51	5.0	0	1	112	0.00	30.352 
18:50	20.2	20.2	20.2	51	5.0	0	1	112	0.00	30.353 
18:55	20.2	20.2	20.2	52	5.4	0	1	112	0.00	30.351 
19:00	20.2	20.2	20.2	53	5.8	0	1	112	0.00	30.350 
19:05	20.2	20.2	20.2	52	5.4	0	1	112	0.00	30.352 
19:10	20.2	20.2	20.2	53	5.8	0	1	112	0.00	30.349 
19:15	20.2	20.2	20.2	53	5.8	0	1	112	0.00	30.349 
19:20	20.2	20.2	20.2	53	5.8	0	1	112	0.00	30.348 
19:25	20.2	20.2	20.2	54	6.2	0	1	112	0.00	30.346 
19:30	20.2	20.2	20.2	54	6.2	0	1	112	0.00	30.347 
19:35	20.2	20.2	20.2	54	6.2	0	1	112	0.00	30.346 
19:40	20.3	20.3	20.3	55	6.7	0	1	112	0.00	30.344 
19:45	20.3	20.3	20.3	55	6.7	0	2	112	0.00	30.342 
19:50	20.3	20.3	20.3	56	7.1	0	2	112	0.00	30.339 
19:55	20.3	20.3	20.3	57	7.5	0	1	112	0.00	30.339 
20:00	20.3	20.3	20.3	58	7.9	0	1	112	0.00	30.339 
20:05	20.2	20.2	20.2	58	7.8	0	1	112	0.00	30.336 
20:10	20.2	20.2	20.2	58	7.8	0	1	112	0.00	30.334 
20:15	20.2	20.2	20.2	59	8.2	0	1	112	0.00	30.337 
20:20	20.2	20.2	20.2	59	8.2	0	0	---	0.00	30.340 
20:25	20.2	20.2	20.2	60	8.6	0	1	112	0.00	30.341 
20:30	20.3	20.3	20.3	60	8.7	0	1	112	0.00	30.341 
20:35	20.3	20.3	20.3	60	8.7	0	1	112	0.00	30.341 
20:40	20.5	20.5	20.5	58	8.1	0	2	112	0.00	30.339 
20:45	20.6	20.6	20.6	58	8.2	0	2	112	0.00	30.339 
20:50	20.6	20.6	20.6	58	8.2	0	1	112	0.00	30.336 
20:55	20.8	20.8	20.8	59	8.8	1	3	90	0.00	30.338 
21:00	20.6	20.6	20.6	59	8.6	2	5	248	0.00	30.339 
21:05	20.6	20.6	20.6	61	9.3	1	3	68	0.00	30.333 
21:10	20.5	20.5	20.5	63	9.9	1	3	292	0.00	30.332 
21:15	20.2	20.2	20.2	67	11.0	1	5	248	0.00	30.334 
21:20	20.0	20.0	20.0	70	11.8	1	5	225	0.00	30.334 
21:25	19.5	19.5	19.5	73	12.3	1	4	248	0.00	30.332 
21:30	19.4	19.4	19.4	76	13.1	1	4	248	0.00	30.332 
21:35	19.1	19.1	19.1	77	13.1	1	3	225	0.00	30.331 
21:40	19.1	19.1	19.1	79	13.7	0	2	225	0.00	30.327 
21:45	18.9	18.9	18.9	80	13.8	0	1	225	0.00	30.328 
21:50	18.8	18.8	18.8	81	14.0	0	1	225	0.00	30.326 
21:55	18.8	18.8	18.8	82	14.2	0	1	225	0.00	30.320 
22:00	18.8	18.8	18.8	83	14.5	0	0	---	0.00	30.320 
22:05	18.8	18.8	18.8	83	14.5	0	0	---	0.00	30.316 
22:10	18.6	18.6	18.6	83	14.3	0	1	225	0.00	30.314 
22:15	18.6	18.6	18.6	84	14.6	0	1	225	0.00	30.313 
22:20	18.6	18.6	18.6	84	14.6	0	0	---	0.00	30.309 
22:25	18.6	18.6	18.6	84	14.6	0	0	---	0.00	30.305 
22:30	18.8	18.8	18.8	85	15.1	0	0	---	0.00	30.302 
22:35	18.8	18.8	18.8	85	15.1	0	1	225	0.00	30.301 
22:40	18.8	18.8	18.8	85	15.1	0	1	225	0.00	30.298 
22:45	18.8	18.8	18.8	85	15.1	0	0	---	0.00	30.294 
22:50	18.8	18.8	18.8	85	15.1	0	1	225	0.00	30.291 
22:55	18.8	18.8	18.8	86	15.3	0	1	225	0.00	30.292 
23:00	18.8	18.8	18.8	86	15.3	0	1	225	0.00	30.289 
23:05	18.8	18.8	18.8	86	15.3	0	0	---	0.00	30.288 
23:10	18.8	18.8	18.8	86	15.3	0	1	225	0.00	30.288 
23:15	18.9	18.9	18.9	86	15.4	0	1	225	0.00	30.286 
23:20	18.9	18.9	18.9	86	15.4	0	1	225	0.00	30.287 
23:25	18.9	18.9	18.9	86	15.4	0	1	225	0.00	30.283 
23:30	18.8	18.8	18.8	86	15.3	0	1	225	0.00	30.279 
23:35	18.8	18.8	18.8	86	15.3	0	1	225	0.00	30.275 
23:40	18.8	18.8	18.8	86	15.3	0	1	225	0.00	30.271 
23:45	18.9	18.9	18.9	86	15.4	0	1	225	0.00	30.265 
23:50	18.9	18.9	18.9	86	15.4	0	1	225	0.00	30.265 
23:55	18.9	18.9	18.9	86	15.4	0	1	225	0.00	30.257 

CoCoRaHS
IN-AL-39
A2 Web Hosting
Creative Commons License
GoDaddy
Look for:

loaded 2017-12-12 01:51:27 • last modified 2010-11-18 10:43:29
Privacy PolicyDisclaimer
• wx.awcolley.com is powered by PmWiki v.2002016 •
• all content (unless otherwise noted) © 2017 A W Colley